Time;durP1;ratioP1;P1;durP2;ratioP2;P2;SDS_P1;SDS_P2;PMS_P1;PMS_P2;Temp;Humidity;BMP_temperature;BMP_pressure;BME280_temperature;BME280_humidity;BME280_pressure;Samples;Min_cycle;Max_cycle;Signal;HPM_P1;HPM_P2
2021/04/24 00:03:39;;;;;;;;;;;6.50;99.90;;;;;;10571920;28;19928;-88
2021/04/24 00:08:41;;;;;;;;;;;5.60;99.90;;;;;;10410284;23;19926;-88
2021/04/24 00:13:42;;;;;;;;;;;4.50;99.90;;;;;;10332302;28;20394;-88
2021/04/24 00:18:43;;;;;;;;;;;5.20;99.90;;;;;;10332339;28;20280;-88
2021/04/24 00:23:46;;;;;;;;;;;4.80;99.90;;;;;;10332144;28;19971;-88
2021/04/24 00:28:49;;;;;;;;;;;5.30;99.90;;;;;;10332762;28;19926;-88
2021/04/24 00:33:51;;;;;;;;;;;4.20;99.90;;;;;;10332752;28;19930;-88
2021/04/24 00:38:53;;;;;;;;;;;3.60;99.90;;;;;;10400062;28;19948;-88
2021/04/24 00:43:54;;;;;;;;;;;4.20;99.90;;;;;;10304470;28;19926;-88
2021/04/24 00:48:56;;;;;;;;;;;6.00;99.90;;;;;;10291362;28;19949;-88
2021/04/24 00:54:04;;;;;;;;;;;4.70;99.90;;;;;;10372009;28;19972;-88
2021/04/24 00:59:06;;;;;;;;;;;3.90;99.90;;;;;;10291777;28;19926;-88
2021/04/24 01:04:08;;;;;;;;;;;4.30;99.90;;;;;;10381912;28;19999;-88
2021/04/24 01:09:09;;;;;;;;;;;3.80;99.90;;;;;;10544688;28;19924;-88
2021/04/24 01:14:10;;;;;;;;;;;4.70;99.90;;;;;;10543442;28;20367;-88
2021/04/24 01:19:15;;;;;;;;;;;4.00;99.90;;;;;;10543416;28;19924;-87
2021/04/24 01:24:17;;;;;;;;;;;5.50;99.90;;;;;;10542463;28;20386;-88
2021/04/24 01:29:18;;;;;;;;;;;3.20;99.90;;;;;;10542756;28;19924;-88
2021/04/24 01:34:19;;;;;;;;;;;3.00;99.90;;;;;;10542033;28;20371;-88
2021/04/24 01:39:20;;;;;;;;;;;2.90;99.90;;;;;;10543751;28;19935;-88
2021/04/24 01:44:22;;;;;;;;;;;5.00;99.90;;;;;;10542357;28;19925;-88
2021/04/24 01:49:23;;;;;;;;;;;3.30;99.90;;;;;;10542630;28;20438;-89
2021/04/24 01:54:24;;;;;;;;;;;4.80;99.90;;;;;;10542184;28;19924;-88
2021/04/24 01:59:27;;;;;;;;;;;5.00;99.90;;;;;;10541070;28;20378;-88
2021/04/24 02:04:28;;;;;;;;;;;3.30;99.90;;;;;;10524392;28;19932;-88
2021/04/24 02:09:30;;;;;;;;;;;3.30;99.90;;;;;;10367955;28;19936;-88
2021/04/24 02:14:49;;;;;;;;;;;4.50;99.90;;;;;;10369348;28;19932;-89
2021/04/24 02:19:51;;;;;;;;;;;3.20;99.90;;;;;;10369814;28;19936;-88
2021/04/24 02:24:56;;;;;;;;;;;4.20;99.90;;;;;;10370893;28;19925;-88
2021/04/24 02:29:57;;;;;;;;;;;3.10;99.90;;;;;;10369469;28;19925;-88
2021/04/24 02:34:59;;;;;;;;;;;4.80;99.90;;;;;;10368772;28;19929;-88
2021/04/24 02:40:05;;;;;;;;;;;3.50;99.90;;;;;;10369757;28;20671;-88
2021/04/24 02:45:08;;;;;;;;;;;3.10;99.90;;;;;;10368414;28;19925;-88
2021/04/24 02:50:12;;;;;;;;;;;2.90;99.90;;;;;;10370173;28;19929;-89
2021/04/24 02:55:14;;;;;;;;;;;2.90;99.90;;;;;;10368364;28;19932;-89
2021/04/24 03:00:17;;;;;;;;;;;3.00;99.90;;;;;;10368670;28;19925;-88
2021/04/24 03:05:18;;;;;;;;;;;2.70;99.90;;;;;;10374466;28;19926;-89
2021/04/24 03:10:20;;;;;;;;;;;2.80;99.90;;;;;;10368367;28;19932;-88
2021/04/24 03:15:22;;;;;;;;;;;3.20;99.90;;;;;;10369429;28;19925;-88
2021/04/24 03:20:23;;;;;;;;;;;2.80;99.90;;;;;;10367980;28;19926;-89
2021/04/24 03:25:24;;;;;;;;;;;2.80;99.90;;;;;;10367992;28;19926;-88
2021/04/24 03:30:26;;;;;;;;;;;4.90;99.90;;;;;;10368358;28;19925;-88
2021/04/24 03:35:27;;;;;;;;;;;2.60;99.90;;;;;;10367691;28;19925;-88
2021/04/24 03:40:29;;;;;;;;;;;2.60;99.90;;;;;;10366530;28;20402;-88
2021/04/24 03:45:30;;;;;;;;;;;3.80;99.90;;;;;;10350459;28;19929;-88
2021/04/24 03:50:31;;;;;;;;;;;2.80;99.90;;;;;;10367256;28;20294;-88
2021/04/24 03:55:32;;;;;;;;;;;2.50;99.90;;;;;;10368052;28;20398;-89
2021/04/24 04:00:34;;;;;;;;;;;4.70;99.90;;;;;;10374227;28;19932;-88
2021/04/24 04:05:39;;;;;;;;;;;2.50;99.90;;;;;;10374877;28;20012;-88
2021/04/24 04:10:42;;;;;;;;;;;2.40;99.90;;;;;;10442975;28;19945;-89
2021/04/24 04:15:43;;;;;;;;;;;2.40;99.90;;;;;;10373044;28;20358;-89
2021/04/24 04:20:46;;;;;;;;;;;3.90;99.90;;;;;;10373653;28;19982;-89
2021/04/24 04:25:56;;;;;;;;;;;4.30;99.90;;;;;;10374672;28;19990;-89
2021/04/24 04:30:57;;;;;;;;;;;4.10;99.90;;;;;;10372601;28;20348;-88
2021/04/24 04:36:05;;;;;;;;;;;2.40;99.90;;;;;;10372231;28;20315;-89
2021/04/24 04:41:08;;;;;;;;;;;2.60;99.90;;;;;;10371753;28;20394;-89
2021/04/24 04:46:09;;;;;;;;;;;2.40;99.90;;;;;;10371298;28;19932;-88
2021/04/24 04:51:10;;;;;;;;;;;2.50;99.90;;;;;;10371949;28;19929;-88
2021/04/24 04:56:12;;;;;;;;;;;2.60;99.90;;;;;;10474550;28;19963;-89
2021/04/24 05:01:13;;;;;;;;;;;4.80;99.90;;;;;;10544460;28;19924;-88
2021/04/24 05:06:14;;;;;;;;;;;3.50;99.90;;;;;;10543395;28;19925;-88
2021/04/24 05:11:16;;;;;;;;;;;3.00;99.90;;;;;;10415447;28;19932;-88
2021/04/24 05:16:17;;;;;;;;;;;5.00;99.90;;;;;;10372737;28;19932;-88
2021/04/24 05:21:19;;;;;;;;;;;6.00;99.90;;;;;;10371712;28;19925;-87
2021/04/24 05:26:20;;;;;;;;;;;3.30;99.90;;;;;;10371455;28;19936;-88
2021/04/24 05:31:22;;;;;;;;;;;5.50;99.90;;;;;;10355270;28;19925;-88
2021/04/24 05:36:24;;;;;;;;;;;3.70;99.90;;;;;;10371119;28;19926;-88
2021/04/24 05:41:26;;;;;;;;;;;4.00;99.90;;;;;;10371191;28;20016;-88
2021/04/24 05:46:27;;;;;;;;;;;4.20;99.90;;;;;;10354712;28;19933;-88
2021/04/24 05:51:29;;;;;;;;;;;4.20;99.90;;;;;;10370732;28;19926;-89
2021/04/24 05:56:31;;;;;;;;;;;4.60;99.90;;;;;;10354462;28;19929;-89
2021/04/24 06:01:32;;;;;;;;;;;5.90;99.90;;;;;;10369828;28;19931;-88
2021/04/24 06:06:34;;;;;;;;;;;7.00;99.90;;;;;;10356464;23;19929;-87
2021/04/24 06:11:35;;;;;;;;;;;6.30;99.90;;;;;;10313384;28;19932;-88
2021/04/24 06:16:37;;;;;;;;;;;7.80;99.90;;;;;;10315208;28;19972;-87
2021/04/24 06:21:39;;;;;;;;;;;7.10;99.90;;;;;;10328883;28;19925;-87
2021/04/24 06:26:40;;;;;;;;;;;6.10;99.90;;;;;;10329349;28;19926;-87
2021/04/24 06:31:42;;;;;;;;;;;6.80;99.90;;;;;;10330051;28;19929;-87
2021/04/24 06:36:43;;;;;;;;;;;9.20;99.90;;;;;;10384349;28;19934;-87
2021/04/24 06:41:44;;;;;;;;;;;8.70;99.90;;;;;;10328408;28;19932;-86
2021/04/24 06:46:45;;;;;;;;;;;10.70;99.90;;;;;;10343044;28;19932;-87
2021/04/24 06:51:47;;;;;;;;;;;10.20;99.90;;;;;;10343133;28;19925;-87
2021/04/24 06:56:48;;;;;;;;;;;10.50;99.90;;;;;;10344615;28;20337;-87
2021/04/24 07:01:50;;;;;;;;;;;11.40;99.90;;;;;;10344426;28;19926;-87
2021/04/24 07:06:51;;;;;;;;;;;11.80;99.90;;;;;;10343492;28;20412;-86
2021/04/24 07:11:52;;;;;;;;;;;10.70;99.90;;;;;;10344038;28;19926;-86
2021/04/24 07:16:54;;;;;;;;;;;11.00;99.90;;;;;;10343026;28;20418;-87
2021/04/24 07:21:55;;;;;;;;;;;10.50;99.90;;;;;;10327567;28;19926;-86
2021/04/24 07:26:57;;;;;;;;;;;10.10;99.90;;;;;;10328028;28;19948;-86
2021/04/24 07:31:58;;;;;;;;;;;10.60;99.90;;;;;;10347819;28;20008;-86
2021/04/24 07:37:00;;;;;;;;;;;11.00;99.90;;;;;;10350644;28;19933;-87
2021/04/24 07:42:01;;;;;;;;;;;11.60;99.90;;;;;;10350519;28;20033;-86
2021/04/24 07:47:02;;;;;;;;;;;11.70;98.60;;;;;;10353061;28;19926;-85
2021/04/24 07:52:05;;;;;;;;;;;10.60;99.90;;;;;;10335088;28;19932;-86
2021/04/24 07:57:06;;;;;;;;;;;11.70;99.90;;;;;;10349431;28;20380;-87
2021/04/24 08:02:09;;;;;;;;;;;12.00;96.40;;;;;;10349995;28;19926;-86
2021/04/24 08:07:10;;;;;;;;;;;12.20;96.60;;;;;;10334142;28;19926;-86
2021/04/24 08:12:12;;;;;;;;;;;13.40;93.90;;;;;;10348825;28;20418;-86
2021/04/24 08:17:14;;;;;;;;;;;13.20;92.00;;;;;;10334238;28;19925;-86
2021/04/24 08:22:15;;;;;;;;;;;12.90;94.40;;;;;;10443249;28;19925;-86
2021/04/24 08:27:17;;;;;;;;;;;13.70;91.40;;;;;;10520367;28;20287;-86
2021/04/24 08:32:18;;;;;;;;;;;13.60;90.90;;;;;;10502626;28;19930;-86
2021/04/24 08:37:20;;;;;;;;;;;13.70;88.40;;;;;;10504496;28;19978;-85
2021/04/24 08:42:21;;;;;;;;;;;13.50;89.90;;;;;;10519107;28;20027;-85
2021/04/24 08:47:23;;;;;;;;;;;14.10;89.50;;;;;;10363679;28;20303;-86
2021/04/24 08:52:24;;;;;;;;;;;14.00;82.10;;;;;;10332197;28;19933;-86
2021/04/24 08:57:26;;;;;;;;;;;12.40;89.40;;;;;;10347641;28;19952;-86
2021/04/24 09:02:27;;;;;;;;;;;13.80;79.20;;;;;;10347887;28;19940;-87
2021/04/24 09:07:29;;;;;;;;;;;13.40;81.80;;;;;;10331050;28;19926;-87
2021/04/24 09:12:34;;;;;;;;;;;13.60;78.30;;;;;;10332680;28;19926;-86
2021/04/24 09:17:59;;;;;;;;;;;13.70;81.40;;;;;;10332114;28;19925;-86
2021/04/24 09:23:02;;;;;;;;;;;14.10;89.00;;;;;;10334318;28;19965;-85
2021/04/24 09:28:05;;;;;;;;;;;14.60;73.20;;;;;;10329717;28;19944;-85
2021/04/24 09:33:07;;;;;;;;;;;13.80;73.90;;;;;;10329707;28;19932;-85
2021/04/24 09:38:10;;;;;;;;;;;13.20;71.30;;;;;;10330637;28;20025;-85
2021/04/24 09:43:11;;;;;;;;;;;14.60;72.60;;;;;;10333289;28;19930;-85
2021/04/24 09:48:19;;;;;;;;;;;14.40;76.90;;;;;;10330508;28;19926;-85
2021/04/24 09:53:24;;;;;;;;;;;14.00;69.10;;;;;;10330092;28;19926;-85
2021/04/24 09:58:30;;;;;;;;;;;14.70;69.70;;;;;;10330872;28;19926;-84
2021/04/24 10:03:35;;;;;;;;;;;14.20;68.70;;;;;;10300084;28;19930;-85
2021/04/24 10:08:37;;;;;;;;;;;14.80;75.20;;;;;;10289898;28;19926;-85
2021/04/24 10:13:39;;;;;;;;;;;15.50;71.50;;;;;;10289306;28;19926;-87
2021/04/24 10:18:40;;;;;;;;;;;15.80;63.10;;;;;;10288604;28;20360;-84
2021/04/24 10:23:41;;;;;;;;;;;15.00;61.90;;;;;;10303550;28;19930;-84
2021/04/24 10:28:43;;;;;;;;;;;15.40;63.30;;;;;;10320552;28;19933;-84
2021/04/24 10:33:45;;;;;;;;;;;16.30;68.70;;;;;;10316264;28;20292;-84
2021/04/24 10:38:48;;;;;;;;;;;14.60;67.60;;;;;;10360185;28;19934;-85
2021/04/24 10:43:59;;;;;;;;;;;15.90;60.30;;;;;;10326287;28;19933;-84
2021/04/24 10:49:21;;;;;;;;;;;15.90;59.30;;;;;;10288782;28;19969;-84
2021/04/24 10:54:23;;;;;;;;;;;15.90;57.90;;;;;;10301844;28;19937;-84
2021/04/24 10:59:25;;;;;;;;;;;15.80;62.50;;;;;;10287326;28;19935;-84
2021/04/24 11:04:39;;;;;;;;;;;16.20;64.10;;;;;;10303181;28;19926;-85
2021/04/24 11:09:41;;;;;;;;;;;15.00;62.40;;;;;;10288256;28;20391;-84
2021/04/24 11:14:42;;;;;;;;;;;15.20;59.70;;;;;;10303601;28;20357;-84
2021/04/24 11:19:46;;;;;;;;;;;16.50;59.50;;;;;;10328166;28;19926;-83
2021/04/24 11:24:48;;;;;;;;;;;16.00;55.10;;;;;;10328147;28;19934;-84
2021/04/24 11:29:49;;;;;;;;;;;15.80;60.00;;;;;;10327393;28;19926;-84
2021/04/24 11:34:50;;;;;;;;;;;16.40;56.90;;;;;;10327525;28;20373;-84
2021/04/24 11:40:07;;;;;;;;;;;15.80;59.00;;;;;;10328973;28;19936;-84
2021/04/24 11:45:15;;;;;;;;;;;16.30;55.20;;;;;;10327346;28;20262;-84
2021/04/24 11:50:17;;;;;;;;;;;16.10;55.20;;;;;;10326567;28;19926;-84
2021/04/24 11:55:20;;;;;;;;;;;16.20;61.30;;;;;;10342426;28;19933;-84
2021/04/24 12:00:28;;;;;;;;;;;15.40;59.30;;;;;;10342135;28;20384;-84
2021/04/24 12:05:30;;;;;;;;;;;15.50;63.20;;;;;;10457253;23;19923;-87
2021/04/24 12:10:31;;;;;;;;;;;15.60;62.50;;;;;;10663307;27;19923;-88
2021/04/24 12:15:33;;;;;;;;;;;15.60;60.00;;;;;;10645462;27;19935;-87
2021/04/24 12:20:36;;;;;;;;;;;15.10;61.20;;;;;;10651983;27;20377;-88
2021/04/24 12:25:39;;;;;;;;;;;15.20;59.30;;;;;;10653627;27;19991;-88
2021/04/24 12:30:41;;;;;;;;;;;14.90;64.40;;;;;;10671112;27;19967;-88
2021/04/24 12:35:47;;;;;;;;;;;14.60;65.10;;;;;;10671392;27;19931;-88
2021/04/24 12:40:50;;;;;;;;;;;14.80;60.80;;;;;;10664677;27;20304;-88
2021/04/24 12:45:53;;;;;;;;;;;14.90;67.60;;;;;;10615073;27;19923;-88
2021/04/24 12:50:58;;;;;;;;;;;14.90;66.40;;;;;;10669669;27;19927;-87
2021/04/24 12:56:03;;;;;;;;;;;14.20;62.90;;;;;;10654847;27;20010;-87
2021/04/24 13:01:12;;;;;;;;;;;14.70;66.60;;;;;;10654664;27;19924;-87
2021/04/24 13:06:16;;;;;;;;;;;14.70;64.50;;;;;;10653630;27;19923;-85
2021/04/24 13:11:18;;;;;;;;;;;14.50;65.10;;;;;;10672018;27;19992;-86
2021/04/24 13:16:30;;;;;;;;;;;14.70;67.80;;;;;;10670207;27;20263;-86
2021/04/24 13:21:35;;;;;;;;;;;14.20;67.50;;;;;;10671233;27;19929;-87
2021/04/24 13:26:38;;;;;;;;;;;14.90;86.20;;;;;;10669858;27;19923;-87
2021/04/24 13:31:40;;;;;;;;;;;15.20;70.80;;;;;;10650548;27;20366;-86
2021/04/24 13:36:49;;;;;;;;;;;14.80;70.30;;;;;;10650447;27;19923;-86
2021/04/24 13:41:51;;;;;;;;;;;14.90;65.50;;;;;;10673086;27;19923;-85
2021/04/24 13:46:53;;;;;;;;;;;14.60;64.80;;;;;;10673493;27;19930;-87
2021/04/24 13:51:55;;;;;;;;;;;14.50;69.40;;;;;;10669511;27;19931;-86
2021/04/24 13:56:56;;;;;;;;;;;14.50;70.90;;;;;;10651443;27;20399;-86
2021/04/24 14:01:57;;;;;;;;;;;14.60;72.50;;;;;;10669459;27;20373;-86
2021/04/24 14:06:59;;;;;;;;;;;15.00;67.40;;;;;;10650722;27;19929;-85
2021/04/24 14:12:00;;;;;;;;;;;14.60;66.30;;;;;;10633344;27;19927;-86
2021/04/24 14:17:02;;;;;;;;;;;15.10;69.60;;;;;;10667138;27;19923;-86
2021/04/24 14:22:04;;;;;;;;;;;14.60;73.50;;;;;;10632499;27;20419;-86
2021/04/24 14:27:12;;;;;;;;;;;15.00;69.50;;;;;;10668484;27;20369;-86
2021/04/24 14:32:13;;;;;;;;;;;14.70;68.50;;;;;;10668160;27;20398;-86
2021/04/24 14:37:16;;;;;;;;;;;14.60;70.40;;;;;;10651253;27;19924;-86
2021/04/24 14:42:18;;;;;;;;;;;14.80;69.70;;;;;;10668425;27;19923;-87
2021/04/24 14:47:19;;;;;;;;;;;14.70;70.20;;;;;;10650457;27;19929;-88
2021/04/24 14:52:21;;;;;;;;;;;14.90;66.50;;;;;;10650140;27;19929;-88
2021/04/24 14:57:22;;;;;;;;;;;14.80;67.40;;;;;;10650219;27;19976;-88
2021/04/24 15:02:24;;;;;;;;;;;14.50;66.00;;;;;;10623792;27;19923;-88
2021/04/24 15:07:25;;;;;;;;;;;14.50;66.90;;;;;;10519038;27;19932;-88
2021/04/24 15:12:29;;;;;;;;;;;14.60;65.30;;;;;;10519745;27;19973;-90
2021/04/24 15:17:31;;;;;;;;;;;14.70;63.50;;;;;;10503112;28;19925;-89
2021/04/24 15:22:32;;;;;;;;;;;14.60;61.20;;;;;;10501915;28;19928;-89
2021/04/24 15:27:34;;;;;;;;;;;14.50;59.90;;;;;;10451187;28;19925;-90
2021/04/24 15:32:35;;;;;;;;;;;14.40;56.20;;;;;;10443818;28;20011;-87
2021/04/24 15:37:37;;;;;;;;;;;14.40;57.10;;;;;;10440024;28;20011;-87
2021/04/24 15:42:39;;;;;;;;;;;14.20;56.90;;;;;;10450028;28;20367;-87
2021/04/24 15:47:41;;;;;;;;;;;14.40;54.10;;;;;;10519077;28;19929;-86
2021/04/24 15:52:45;;;;;;;;;;;14.30;52.90;;;;;;10522736;27;20363;-88
2021/04/24 15:57:48;;;;;;;;;;;14.20;51.70;;;;;;10498121;27;19925;-87
2021/04/24 16:02:50;;;;;;;;;;;14.40;52.80;;;;;;10520348;27;20272;-87
2021/04/24 16:07:53;;;;;;;;;;;14.80;53.50;;;;;;10525106;27;19929;-86
2021/04/24 16:12:54;;;;;;;;;;;14.50;54.90;;;;;;10457723;28;20409;-85
2021/04/24 16:17:56;;;;;;;;;;;14.20;53.30;;;;;;10507692;28;20278;-86
2021/04/24 16:22:59;;;;;;;;;;;14.30;52.20;;;;;;10456182;28;19925;-86
2021/04/24 16:28:01;;;;;;;;;;;14.30;51.90;;;;;;10525290;27;19925;-87
2021/04/24 16:33:03;;;;;;;;;;;;;;;;;;10456175;28;19983;-86
2021/04/24 16:38:05;;;;;;;;;;;;;;;;;;10523801;27;20007;-87
2021/04/24 16:43:07;;;;;;;;;;;;;;;;;;10454993;28;19929;-86
2021/04/24 16:48:08;;;;;;;;;;;;;;;;;;10455469;28;19925;-86
2021/04/24 16:53:10;;;;;;;;;;;;;;;;;;10524161;27;20012;-87
2021/04/24 16:58:12;;;;;;;;;;;;;;;;;;10455338;28;19924;-87
2021/04/24 17:03:14;;;;;;;;;;;;;;;;;;10453068;28;19935;-86
2021/04/24 17:08:15;;;;;;;;;;;12.60;88.70;;;;;;10622778;27;19930;-87
2021/04/24 17:13:16;;;;;;;;;;;12.60;89.40;;;;;;10654157;27;19923;-86
2021/04/24 17:18:18;;;;;;;;;;;;;;;;;;10646910;27;19930;-86
2021/04/24 17:23:19;;;;;;;;;;;;;;;;;;10620177;27;20393;-86
2021/04/24 17:28:21;;;;;;;;;;;11.90;90.80;;;;;;10610093;27;19923;-86
2021/04/24 17:33:22;;;;;;;;;;;11.90;73.40;;;;;;10621185;27;19962;-86
2021/04/24 17:38:23;;;;;;;;;;;11.70;63.00;;;;;;10636642;27;19929;-86
2021/04/24 17:43:25;;;;;;;;;;;12.10;66.70;;;;;;10625690;27;19965;-86
2021/04/24 17:48:26;;;;;;;;;;;11.80;62.20;;;;;;10610025;27;19980;-87
2021/04/24 17:53:28;;;;;;;;;;;11.30;62.50;;;;;;10663397;27;20369;-86
2021/04/24 17:58:29;;;;;;;;;;;11.40;67.10;;;;;;10656854;27;20458;-86
2021/04/24 18:03:31;;;;;;;;;;;11.10;66.90;;;;;;10655876;27;20444;-86
2021/04/24 18:08:32;;;;;;;;;;;10.80;70.00;;;;;;10368740;23;19936;-84
2021/04/24 18:13:34;;;;;;;;;;;10.40;69.70;;;;;;10368473;28;20395;-84
2021/04/24 18:18:35;;;;;;;;;;;10.70;70.00;;;;;;10351700;28;19926;-83
2021/04/24 18:23:36;;;;;;;;;;;10.50;69.00;;;;;;10364485;28;20632;-83
2021/04/24 18:28:39;;;;;;;;;;;10.40;68.60;;;;;;10346593;28;19933;-83
2021/04/24 18:33:40;;;;;;;;;;;10.20;69.60;;;;;;10360616;28;20414;-84
2021/04/24 18:38:41;;;;;;;;;;;10.80;69.60;;;;;;10368280;28;19929;-84
2021/04/24 18:43:43;;;;;;;;;;;10.00;69.60;;;;;;10333548;28;19926;-83
2021/04/24 18:48:45;;;;;;;;;;;9.70;75.80;;;;;;10326693;28;20012;-83
2021/04/24 18:53:47;;;;;;;;;;;10.10;79.00;;;;;;10338318;28;19933;-84
2021/04/24 18:58:49;;;;;;;;;;;9.30;79.70;;;;;;10364014;28;20008;-84
2021/04/24 19:03:50;;;;;;;;;;;9.30;85.40;;;;;;10366993;28;19925;-84
2021/04/24 19:08:54;;;;;;;;;;;9.00;85.80;;;;;;10367983;28;19979;-83
2021/04/24 19:13:55;;;;;;;;;;;8.80;87.10;;;;;;10367331;28;19932;-84
2021/04/24 19:18:57;;;;;;;;;;;9.00;84.20;;;;;;10366547;28;20463;-84
2021/04/24 19:23:59;;;;;;;;;;;8.60;84.20;;;;;;10348419;28;20009;-83
2021/04/24 19:29:02;;;;;;;;;;;9.50;91.10;;;;;;10329420;28;20202;-84
2021/04/24 19:34:04;;;;;;;;;;;8.20;92.40;;;;;;10369486;28;19936;-84
2021/04/24 19:39:06;;;;;;;;;;;8.00;91.80;;;;;;10373458;28;19948;-84
2021/04/24 19:44:07;;;;;;;;;;;9.30;93.50;;;;;;10375699;28;19932;-84
2021/04/24 19:49:09;;;;;;;;;;;7.80;92.70;;;;;;10374667;28;19926;-84
2021/04/24 19:54:10;;;;;;;;;;;8.50;91.10;;;;;;10375239;28;19932;-84
2021/04/24 19:59:12;;;;;;;;;;;10.20;93.20;;;;;;10373460;28;20709;-83
2021/04/24 20:04:13;;;;;;;;;;;9.20;91.10;;;;;;10373077;28;19930;-83
2021/04/24 20:09:15;;;;;;;;;;;8.20;93.30;;;;;;10409994;28;19967;-84
2021/04/24 20:14:17;;;;;;;;;;;7.60;91.00;;;;;;10306523;28;19944;-84
2021/04/24 20:19:19;;;;;;;;;;;7.60;92.00;;;;;;10291962;28;20380;-83
2021/04/24 20:24:20;;;;;;;;;;;8.20;93.60;;;;;;10292642;28;19926;-84
2021/04/24 20:29:21;;;;;;;;;;;8.20;94.80;;;;;;10295063;28;20300;-84
2021/04/24 20:34:23;;;;;;;;;;;7.20;94.10;;;;;;10318192;28;19926;-83
2021/04/24 20:39:24;;;;;;;;;;;6.60;93.70;;;;;;10346077;28;19969;-83
2021/04/24 20:44:26;;;;;;;;;;;7.90;95.90;;;;;;10318110;28;19933;-83
2021/04/24 20:49:27;;;;;;;;;;;6.80;96.10;;;;;;10313741;28;20384;-83
2021/04/24 20:54:29;;;;;;;;;;;9.30;96.50;;;;;;10315175;28;20016;-83
2021/04/24 20:59:30;;;;;;;;;;;6.70;95.40;;;;;;10330595;28;20009;-82
2021/04/24 21:04:32;;;;;;;;;;;7.10;97.80;;;;;;10332292;28;20017;-83
2021/04/24 21:09:34;;;;;;;;;;;6.50;98.60;;;;;;10333571;28;19936;-83
2021/04/24 21:14:35;;;;;;;;;;;6.20;98.80;;;;;;10364914;28;20000;-84
2021/04/24 21:19:37;;;;;;;;;;;8.00;99.70;;;;;;10299600;28;20028;-83
2021/04/24 21:24:39;;;;;;;;;;;6.30;98.70;;;;;;10370243;28;20004;-83
2021/04/24 21:29:40;;;;;;;;;;;7.00;99.90;;;;;;10372499;28;19926;-83
2021/04/24 21:34:41;;;;;;;;;;;7.10;99.90;;;;;;10353326;28;19925;-83
2021/04/24 21:39:45;;;;;;;;;;;6.00;99.90;;;;;;10354207;28;20017;-83
2021/04/24 21:44:46;;;;;;;;;;;5.90;99.90;;;;;;10357085;28;20020;-84
2021/04/24 21:49:47;;;;;;;;;;;7.50;99.90;;;;;;10327281;28;19933;-83
2021/04/24 21:54:48;;;;;;;;;;;6.70;99.90;;;;;;10329663;28;19932;-83
2021/04/24 21:59:50;;;;;;;;;;;5.80;99.90;;;;;;10329947;28;19949;-83
2021/04/24 22:04:51;;;;;;;;;;;5.70;99.90;;;;;;10330266;28;19926;-83
2021/04/24 22:09:52;;;;;;;;;;;5.70;99.90;;;;;;10317825;28;20365;-83
2021/04/24 22:14:53;;;;;;;;;;;5.60;99.90;;;;;;10383589;28;20016;-84
2021/04/24 22:19:55;;;;;;;;;;;5.60;99.90;;;;;;10328214;28;19940;-83
2021/04/24 22:24:56;;;;;;;;;;;7.30;99.90;;;;;;10326053;28;19933;-83
2021/04/24 22:29:58;;;;;;;;;;;7.70;99.90;;;;;;10330747;28;19930;-84
2021/04/24 22:34:59;;;;;;;;;;;5.00;99.90;;;;;;10412774;28;19969;-84
2021/04/24 22:40:01;;;;;;;;;;;7.60;99.90;;;;;;10315795;28;20005;-84
2021/04/24 22:45:03;;;;;;;;;;;5.70;99.90;;;;;;10372031;28;20377;-84
2021/04/24 22:50:05;;;;;;;;;;;5.20;99.90;;;;;;10289504;28;19926;-84
2021/04/24 22:55:11;;;;;;;;;;;5.20;99.90;;;;;;10369192;28;20385;-84
2021/04/24 23:00:20;;;;;;;;;;;5.10;99.90;;;;;;10370917;28;19949;-84
2021/04/24 23:05:23;;;;;;;;;;;4.90;99.90;;;;;;10371418;28;20349;-84
2021/04/24 23:10:25;;;;;;;;;;;6.30;99.90;;;;;;10506924;28;19924;-84
2021/04/24 23:15:26;;;;;;;;;;;5.30;99.90;;;;;;10522259;28;19946;-84
2021/04/24 23:20:27;;;;;;;;;;;4.30;99.90;;;;;;10522745;28;19973;-84
2021/04/24 23:25:29;;;;;;;;;;;5.30;99.90;;;;;;10538850;28;19924;-84
2021/04/24 23:30:30;;;;;;;;;;;5.30;99.90;;;;;;10497807;28;19929;-85
2021/04/24 23:35:31;;;;;;;;;;;6.90;99.90;;;;;;10519790;28;19924;-85
2021/04/24 23:40:33;;;;;;;;;;;4.40;99.90;;;;;;10538932;28;19924;-85
2021/04/24 23:45:34;;;;;;;;;;;6.10;99.90;;;;;;10540275;28;19970;-84
2021/04/24 23:50:36;;;;;;;;;;;4.10;99.90;;;;;;10511684;28;19924;-84
2021/04/24 23:55:37;;;;;;;;;;;4.00;99.90;;;;;;10494381;28;19931;-84
